Time;durP1;ratioP1;P1;durP2;ratioP2;P2;SDS_P1;SDS_P2;PMS_P1;PMS_P2;Temp;Humidity;BMP_temperature;BMP_pressure;BME280_temperature;BME280_humidity;BME280_pressure;Samples;Min_cycle;Max_cycle;Signal;HPM_P1;HPM_P2
2021/05/21 00:01:05;;;;;;;2.15;1.77;;;;;;;;;;4996906;28;20208;-83
2021/05/21 00:03:32;;;;;;;1.70;1.60;;;;;;;;;;4997231;28;20605;-83
2021/05/21 00:05:59;;;;;;;1.60;1.50;;;;;;;;;;4996745;28;20223;-83
2021/05/21 00:08:26;;;;;;;1.80;1.70;;;;;;;;;;4997239;28;20228;-83
2021/05/21 00:10:53;;;;;;;1.77;1.67;;;;;;;;;;4997065;28;20207;-83
2021/05/21 00:13:19;;;;;;;1.70;1.60;;;;;;;;;;4998154;28;20624;-83
2021/05/21 00:15:47;;;;;;;1.70;1.60;;;;;;;;;;4997927;28;20208;-83
2021/05/21 00:18:14;;;;;;;1.40;1.40;;;;;;;;;;4997962;28;20729;-83
2021/05/21 00:20:41;;;;;;;1.50;1.40;;;;;;;;;;4997907;28;20258;-83
2021/05/21 00:23:08;;;;;;;1.35;1.27;;;;;;;;;;4998318;28;20199;-83
2021/05/21 00:25:35;;;;;;;1.90;1.70;;;;;;;;;;4997739;28;20223;-83
2021/05/21 00:28:01;;;;;;;2.15;1.88;;;;;;;;;;4998280;28;20228;-83
2021/05/21 00:30:28;;;;;;;2.10;1.98;;;;;;;;;;4997570;28;20204;-83
2021/05/21 00:32:56;;;;;;;5.03;1.42;;;;;;;;;;4997542;28;20225;-83
2021/05/21 00:35:23;;;;;;;1.48;1.30;;;;;;;;;;4997964;28;20214;-83
2021/05/21 00:37:49;;;;;;;3.38;1.50;;;;;;;;;;4997901;28;20230;-83
2021/05/21 00:40:17;;;;;;;2.00;1.40;;;;;;;;;;4998415;28;20572;-83
2021/05/21 00:42:44;;;;;;;1.70;1.60;;;;;;;;;;4997887;28;20218;-83
2021/05/21 00:45:11;;;;;;;1.70;1.60;;;;;;;;;;4998057;28;20714;-82
2021/05/21 00:47:38;;;;;;;1.48;1.20;;;;;;;;;;4997248;28;20246;-83
2021/05/21 00:50:08;;;;;;;2.20;1.55;;;;;;;;;;4997249;28;20199;-83
2021/05/21 00:52:38;;;;;;;1.50;1.40;;;;;;;;;;4997915;28;20211;-83
2021/05/21 00:55:07;;;;;;;2.65;1.80;;;;;;;;;;4997561;28;20203;-83
2021/05/21 00:57:34;;;;;;;1.60;1.35;;;;;;;;;;4997400;28;20216;-82
2021/05/21 01:00:00;;;;;;;1.85;1.52;;;;;;;;;;4997712;28;20262;-83
2021/05/21 01:02:27;;;;;;;1.60;1.50;;;;;;;;;;4998175;28;20216;-83
2021/05/21 01:04:54;;;;;;;1.70;1.60;;;;;;;;;;4997665;28;20227;-83
2021/05/21 01:07:22;;;;;;;1.80;1.60;;;;;;;;;;4997930;28;20713;-83
2021/05/21 01:09:51;;;;;;;2.03;1.52;;;;;;;;;;4998006;28;20207;-83
2021/05/21 01:12:18;;;;;;;1.60;1.50;;;;;;;;;;4997869;28;20208;-82
2021/05/21 01:14:49;;;;;;;1.40;1.25;;;;;;;;;;4997885;28;20211;-83
2021/05/21 01:17:16;;;;;;;1.92;1.80;;;;;;;;;;4997919;28;20227;-83
2021/05/21 01:19:43;;;;;;;1.58;1.48;;;;;;;;;;4997761;28;20213;-83
2021/05/21 01:22:12;;;;;;;1.67;1.58;;;;;;;;;;4997398;28;20246;-83
2021/05/21 01:24:40;;;;;;;1.52;1.42;;;;;;;;;;4998040;28;20218;-83
2021/05/21 01:27:09;;;;;;;1.70;1.60;;;;;;;;;;4998296;28;20579;-83
2021/05/21 01:29:37;;;;;;;1.40;1.30;;;;;;;;;;5002233;28;20211;-83
2021/05/21 01:32:04;;;;;;;3.20;1.70;;;;;;;;;;5001796;28;20208;-83
2021/05/21 01:34:34;;;;;;;1.90;1.70;;;;;;;;;;5001598;28;20674;-83
2021/05/21 01:37:01;;;;;;;1.50;1.40;;;;;;;;;;5001701;28;20273;-83
2021/05/21 01:39:34;;;;;;;1.95;1.85;;;;;;;;;;5001228;28;20210;-83
2021/05/21 01:42:01;;;;;;;1.88;1.70;;;;;;;;;;5001477;28;20200;-83
2021/05/21 01:44:28;;;;;;;2.15;1.90;;;;;;;;;;5001004;28;20670;-83
2021/05/21 01:46:55;;;;;;;1.80;1.67;;;;;;;;;;5001600;28;20228;-83
2021/05/21 01:49:22;;;;;;;1.85;1.70;;;;;;;;;;5001125;28;20203;-83
2021/05/21 01:51:56;;;;;;;2.13;2.03;;;;;;;;;;5000658;28;20207;-83
2021/05/21 01:54:23;;;;;;;1.70;1.60;;;;;;;;;;5000544;28;20203;-83
2021/05/21 01:56:52;;;;;;;2.22;1.55;;;;;;;;;;5001224;28;20220;-83
2021/05/21 01:59:19;;;;;;;1.52;1.42;;;;;;;;;;5000525;28;20214;-83
2021/05/21 02:01:46;;;;;;;1.63;1.52;;;;;;;;;;5000814;28;20620;-83
2021/05/21 02:04:14;;;;;;;1.45;1.40;;;;;;;;;;5000873;28;20203;-83
2021/05/21 02:06:41;;;;;;;1.95;1.63;;;;;;;;;;5000518;28;20228;-83
2021/05/21 02:09:10;;;;;;;3.33;1.85;;;;;;;;;;5000757;28;20204;-84
2021/05/21 02:11:37;;;;;;;2.05;1.83;;;;;;;;;;5000376;28;20214;-83
2021/05/21 02:14:06;;;;;;;3.53;1.60;;;;;;;;;;5000953;28;20677;-83
2021/05/21 02:16:33;;;;;;;1.67;1.52;;;;;;;;;;5000185;28;20228;-82
2021/05/21 02:19:00;;;;;;;1.95;1.85;;;;;;;;;;5000535;28;20211;-82
2021/05/21 02:21:31;;;;;;;2.10;1.90;;;;;;;;;;5000462;28;20239;-83
2021/05/21 02:24:00;;;;;;;1.63;1.52;;;;;;;;;;5000603;28;20223;-83
2021/05/21 02:26:27;;;;;;;2.97;1.60;;;;;;;;;;5000221;28;20228;-83
2021/05/21 02:28:54;;;;;;;1.48;1.38;;;;;;;;;;5000962;28;20200;-83
2021/05/21 02:31:22;;;;;;;2.42;2.22;;;;;;;;;;5000523;28;20207;-83
2021/05/21 02:33:49;;;;;;;1.50;1.40;;;;;;;;;;4999406;28;20207;-83
2021/05/21 02:36:16;;;;;;;1.63;1.48;;;;;;;;;;4999347;28;20205;-82
2021/05/21 02:38:43;;;;;;;3.95;1.73;;;;;;;;;;5000379;28;20207;-83
2021/05/21 02:41:09;;;;;;;2.03;1.80;;;;;;;;;;5001246;28;20212;-83
2021/05/21 02:43:36;;;;;;;1.55;1.45;;;;;;;;;;5000984;28;20588;-83
2021/05/21 02:46:03;;;;;;;1.70;1.60;;;;;;;;;;5000776;28;20230;-83
2021/05/21 02:48:31;;;;;;;1.42;1.30;;;;;;;;;;4999928;28;20210;-83
2021/05/21 02:50:57;;;;;;;1.70;1.60;;;;;;;;;;4999723;28;20214;-83
2021/05/21 02:53:24;;;;;;;1.88;1.77;;;;;;;;;;5000072;28;20207;-83
2021/05/21 02:55:51;;;;;;;1.50;1.40;;;;;;;;;;5000571;28;20207;-83
2021/05/21 02:58:19;;;;;;;2.53;1.60;;;;;;;;;;4999800;28;20732;-83
2021/05/21 03:00:46;;;;;;;3.13;1.38;;;;;;;;;;4999753;28;20582;-83
2021/05/21 03:03:12;;;;;;;2.42;1.50;;;;;;;;;;4999499;28;20211;-82
2021/05/21 03:05:40;;;;;;;1.83;1.70;;;;;;;;;;5000031;28;20708;-83
2021/05/21 03:08:07;;;;;;;1.30;1.20;;;;;;;;;;4999851;28;20231;-83
2021/05/21 03:10:34;;;;;;;1.58;1.42;;;;;;;;;;4999950;28;20584;-83
2021/05/21 03:13:01;;;;;;;2.47;1.55;;;;;;;;;;5000404;28;20208;-83
2021/05/21 03:15:29;;;;;;;1.52;1.42;;;;;;;;;;4999921;28;20211;-83
2021/05/21 03:17:55;;;;;;;1.20;1.10;;;;;;;;;;5000079;28;20216;-83
2021/05/21 03:20:23;;;;;;;2.45;1.30;;;;;;;;;;5000059;28;20238;-82
2021/05/21 03:22:51;;;;;;;0.90;0.90;;;;;;;;;;4999595;28;20396;-83
2021/05/21 03:25:18;;;;;;;2.25;1.40;;;;;;;;;;5000134;28;20594;-83
2021/05/21 03:27:45;;;;;;;1.50;1.40;;;;;;;;;;5000213;28;20215;-82
2021/05/21 03:30:13;;;;;;;1.90;1.30;;;;;;;;;;4999641;28;20227;-83
2021/05/21 03:32:41;;;;;;;1.38;1.20;;;;;;;;;;4999991;28;20270;-83
2021/05/21 03:35:09;;;;;;;3.00;1.50;;;;;;;;;;4999202;28;20212;-83
2021/05/21 03:37:36;;;;;;;1.30;1.20;;;;;;;;;;4999273;28;20235;-83
2021/05/21 03:40:05;;;;;;;1.17;1.10;;;;;;;;;;4998621;28;20203;-82
2021/05/21 03:42:32;;;;;;;2.15;2.05;;;;;;;;;;4998969;28;20581;-83
2021/05/21 03:44:59;;;;;;;1.95;1.73;;;;;;;;;;4999451;28;20218;-83
2021/05/21 03:47:26;;;;;;;1.30;1.20;;;;;;;;;;4998711;28;20246;-82
2021/05/21 03:49:53;;;;;;;0.82;0.82;;;;;;;;;;4998736;28;20222;-82
2021/05/21 03:52:20;;;;;;;4.13;1.23;;;;;;;;;;4998986;28;20235;-83
2021/05/21 03:54:47;;;;;;;1.02;1.02;;;;;;;;;;4999701;28;20204;-82
2021/05/21 03:57:14;;;;;;;2.05;1.15;;;;;;;;;;4998584;28;20215;-82
2021/05/21 03:59:41;;;;;;;2.35;1.30;;;;;;;;;;4999822;28;20199;-82
2021/05/21 04:02:08;;;;;;;1.40;1.30;;;;;;;;;;4999375;28;20207;-82
2021/05/21 04:04:35;;;;;;;1.10;1.10;;;;;;;;;;4998477;28;20199;-83
2021/05/21 04:07:02;;;;;;;2.30;1.27;;;;;;;;;;4999114;28;20232;-82
2021/05/21 04:09:30;;;;;;;1.30;1.20;;;;;;;;;;4999377;28;20204;-82
2021/05/21 04:11:57;;;;;;;1.67;1.55;;;;;;;;;;4998593;28;20226;-82
2021/05/21 04:14:25;;;;;;;1.30;1.20;;;;;;;;;;4998868;28;20203;-82
2021/05/21 04:16:52;;;;;;;1.40;1.30;;;;;;;;;;4999144;28;20227;-82
2021/05/21 04:19:19;;;;;;;1.60;1.50;;;;;;;;;;4998621;28;20203;-82
2021/05/21 04:21:46;;;;;;;2.15;1.08;;;;;;;;;;4998402;28;20227;-82
2021/05/21 04:24:13;;;;;;;1.10;1.10;;;;;;;;;;4998388;28;20204;-82
2021/05/21 04:26:40;;;;;;;1.42;1.23;;;;;;;;;;4997764;28;20242;-82
2021/05/21 04:29:07;;;;;;;2.63;1.40;;;;;;;;;;4998604;28;20208;-83
2021/05/21 04:31:35;;;;;;;2.72;1.58;;;;;;;;;;4998926;28;20230;-82
2021/05/21 04:34:02;;;;;;;1.90;1.20;;;;;;;;;;4998437;28;20693;-83
2021/05/21 04:36:28;;;;;;;1.02;1.02;;;;;;;;;;4998254;28;20224;-81
2021/05/21 04:38:55;;;;;;;1.50;1.10;;;;;;;;;;4998993;28;20211;-82
2021/05/21 04:41:22;;;;;;;1.10;1.00;;;;;;;;;;4999230;28;20261;-82
2021/05/21 04:43:50;;;;;;;1.08;1.00;;;;;;;;;;4998617;28;20203;-82
2021/05/21 04:46:17;;;;;;;1.15;1.05;;;;;;;;;;4998451;28;20223;-82
2021/05/21 04:48:45;;;;;;;2.78;1.38;;;;;;;;;;4998646;28;20223;-81
2021/05/21 04:51:12;;;;;;;1.17;1.10;;;;;;;;;;4998950;28;20204;-82
2021/05/21 04:53:41;;;;;;;3.88;1.15;;;;;;;;;;4998411;28;20180;-81
2021/05/21 04:56:09;;;;;;;1.48;1.40;;;;;;;;;;4998009;28;20286;-83
2021/05/21 04:58:36;;;;;;;1.40;1.30;;;;;;;;;;4998909;28;20210;-83
2021/05/21 05:01:04;;;;;;;1.58;1.48;;;;;;;;;;4998761;28;20401;-82
2021/05/21 05:03:31;;;;;;;1.10;1.10;;;;;;;;;;4997850;28;20192;-83
2021/05/21 05:05:59;;;;;;;1.70;1.55;;;;;;;;;;4998957;28;20292;-82
2021/05/21 05:08:27;;;;;;;1.50;1.40;;;;;;;;;;4998284;28;20710;-81
2021/05/21 05:10:54;;;;;;;1.17;1.10;;;;;;;;;;4998425;28;20200;-82
2021/05/21 05:13:21;;;;;;;4.15;1.20;;;;;;;;;;4998720;28;20195;-82
2021/05/21 05:15:48;;;;;;;1.77;1.38;;;;;;;;;;4998109;28;20202;-82
2021/05/21 05:18:16;;;;;;;1.20;1.10;;;;;;;;;;4998634;28;20288;-83
2021/05/21 05:20:43;;;;;;;2.03;1.65;;;;;;;;;;4998648;28;20230;-82
2021/05/21 05:23:11;;;;;;;1.58;1.48;;;;;;;;;;4998183;28;20243;-82
2021/05/21 05:25:41;;;;;;;1.15;1.10;;;;;;;;;;4998867;28;20211;-82
2021/05/21 05:28:08;;;;;;;1.55;1.45;;;;;;;;;;4999836;28;20234;-82
2021/05/21 05:30:35;;;;;;;1.05;1.05;;;;;;;;;;5000913;28;20214;-82
2021/05/21 05:33:02;;;;;;;1.20;1.10;;;;;;;;;;5004349;28;20199;-82
2021/05/21 05:35:29;;;;;;;1.30;1.20;;;;;;;;;;5005540;28;20207;-83
2021/05/21 05:37:56;;;;;;;1.77;1.15;;;;;;;;;;5004339;28;20231;-82
2021/05/21 05:40:24;;;;;;;2.20;1.05;;;;;;;;;;5002423;28;20219;-82
2021/05/21 05:42:50;;;;;;;1.52;1.15;;;;;;;;;;5006788;28;20210;-82
2021/05/21 05:45:17;;;;;;;1.10;1.00;;;;;;;;;;5006472;28;20204;-82
2021/05/21 05:47:44;;;;;;;1.48;1.38;;;;;;;;;;5006254;28;20239;-82
2021/05/21 05:50:12;;;;;;;2.55;1.00;;;;;;;;;;5005479;28;20267;-84
2021/05/21 05:52:38;;;;;;;1.65;1.20;;;;;;;;;;5001132;28;20192;-82
2021/05/21 05:55:07;;;;;;;1.40;1.30;;;;;;;;;;4997927;28;20207;-82
2021/05/21 05:57:34;;;;;;;4.18;1.38;;;;;;;;;;4998502;28;20293;-82
2021/05/21 06:00:01;;;;;;;0.98;0.98;;;;;;;;;;4997992;28;20239;-83
2021/05/21 06:02:28;;;;;;;2.78;1.20;;;;;;;;;;4998887;28;20200;-82
2021/05/21 06:04:56;;;;;;;1.83;1.30;;;;;;;;;;4998623;28;20570;-83
2021/05/21 06:07:23;;;;;;;1.27;1.17;;;;;;;;;;4998488;28;20227;-85
2021/05/21 06:09:50;;;;;;;3.10;1.23;;;;;;;;;;4997663;28;20199;-84
2021/05/21 06:12:17;;;;;;;2.95;1.15;;;;;;;;;;5002452;28;20208;-82
2021/05/21 06:14:45;;;;;;;2.50;1.35;;;;;;;;;;5006960;28;20207;-84
2021/05/21 06:17:12;;;;;;;1.88;1.23;;;;;;;;;;5007373;28;20219;-83
2021/05/21 06:19:38;;;;;;;1.00;1.00;;;;;;;;;;5007626;28;20203;-82
2021/05/21 06:22:05;;;;;;;1.58;1.35;;;;;;;;;;5008386;28;20246;-83
2021/05/21 06:24:32;;;;;;;1.77;1.63;;;;;;;;;;5005931;28;20200;-82
2021/05/21 06:27:15;;;;;;;2.45;1.10;;;;;;;;;;5004669;28;20231;-83
2021/05/21 06:29:43;;;;;;;1.73;1.63;;;;;;;;;;5007543;28;20207;-83
2021/05/21 06:32:10;;;;;;;1.30;1.10;;;;;;;;;;5012670;28;20197;-83
2021/05/21 06:34:37;;;;;;;1.52;1.10;;;;;;;;;;5009403;28;20300;-83
2021/05/21 06:37:04;;;;;;;2.50;1.55;;;;;;;;;;5006947;28;20219;-83
2021/05/21 06:39:31;;;;;;;1.20;1.10;;;;;;;;;;5008224;28;20262;-83
2021/05/21 06:41:57;;;;;;;1.88;1.20;;;;;;;;;;5008881;28;20211;-83
2021/05/21 06:44:24;;;;;;;2.08;1.27;;;;;;;;;;5008511;28;20200;-83
2021/05/21 06:46:57;;;;;;;2.83;1.77;;;;;;;;;;5007528;28;20238;-83
2021/05/21 06:49:23;;;;;;;1.55;1.35;;;;;;;;;;5008173;28;20227;-84
2021/05/21 06:51:50;;;;;;;1.48;1.20;;;;;;;;;;5008012;28;20195;-83
2021/05/21 06:54:18;;;;;;;1.95;0.90;;;;;;;;;;5006994;28;20215;-83
2021/05/21 06:56:45;;;;;;;1.70;1.27;;;;;;;;;;5008025;28;20224;-84
2021/05/21 06:59:12;;;;;;;1.35;1.13;;;;;;;;;;5007318;28;20180;-82
2021/05/21 07:01:39;;;;;;;1.58;1.20;;;;;;;;;;5006909;28;20222;-83
2021/05/21 07:04:06;;;;;;;1.20;1.08;;;;;;;;;;5005949;28;20207;-84
2021/05/21 07:06:33;;;;;;;0.88;0.88;;;;;;;;;;5005031;28;20223;-83
2021/05/21 07:09:00;;;;;;;2.33;1.27;;;;;;;;;;5005792;28;20192;-84
2021/05/21 07:11:27;;;;;;;1.33;1.23;;;;;;;;;;5006220;28;20184;-84
2021/05/21 07:13:54;;;;;;;1.15;0.93;;;;;;;;;;5002156;28;20666;-83
2021/05/21 07:16:21;;;;;;;2.88;2.08;;;;;;;;;;5004292;28;20683;-82
2021/05/21 07:18:48;;;;;;;0.80;0.80;;;;;;;;;;5004228;28;20204;-83
2021/05/21 07:21:15;;;;;;;1.13;1.05;;;;;;;;;;5004282;28;20227;-83
2021/05/21 07:23:42;;;;;;;1.30;1.20;;;;;;;;;;5003442;28;20203;-83
2021/05/21 07:26:09;;;;;;;5.25;0.95;;;;;;;;;;5006306;28;20207;-83
2021/05/21 07:28:36;;;;;;;2.00;1.35;;;;;;;;;;5001487;28;20228;-83
2021/05/21 07:31:03;;;;;;;1.25;1.00;;;;;;;;;;5006595;28;20200;-84
2021/05/21 07:33:32;;;;;;;1.90;1.05;;;;;;;;;;5004642;28;20255;-82
2021/05/21 07:36:00;;;;;;;1.13;1.02;;;;;;;;;;5005478;28;20192;-85
2021/05/21 07:38:28;;;;;;;0.82;0.82;;;;;;;;;;5007370;28;20220;-84
2021/05/21 07:40:54;;;;;;;1.10;1.02;;;;;;;;;;5006940;28;20203;-84
2021/05/21 07:43:21;;;;;;;1.35;1.02;;;;;;;;;;5006680;28;20206;-83
2021/05/21 07:45:48;;;;;;;2.05;1.13;;;;;;;;;;5005949;28;20203;-83
2021/05/21 07:48:15;;;;;;;1.15;0.80;;;;;;;;;;5004509;28;20581;-83
2021/05/21 07:50:42;;;;;;;1.17;0.95;;;;;;;;;;4999754;28;20285;-84
2021/05/21 07:53:10;;;;;;;1.20;1.10;;;;;;;;;;5004238;28;20204;-85
2021/05/21 07:55:38;;;;;;;1.10;0.90;;;;;;;;;;5001847;28;20493;-84
2021/05/21 07:58:07;;;;;;;12.30;2.95;;;;;;;;;;5003861;28;20226;-85
2021/05/21 08:00:34;;;;;;;4.28;1.30;;;;;;;;;;5004886;28;20206;-84
2021/05/21 08:03:02;;;;;;;1.60;1.00;;;;;;;;;;5003716;28;20184;-85
2021/05/21 08:05:29;;;;;;;27.65;3.72;;;;;;;;;;5004625;28;20204;-84
2021/05/21 08:07:55;;;;;;;13.23;2.92;;;;;;;;;;5003735;28;20230;-84
2021/05/21 08:10:23;;;;;;;23.27;3.72;;;;;;;;;;5004024;28;20180;-83
2021/05/21 08:12:50;;;;;;;7.10;1.50;;;;;;;;;;5003709;28;20204;-85
2021/05/21 08:15:18;;;;;;;7.30;2.17;;;;;;;;;;5002945;28;20210;-85
2021/05/21 08:17:45;;;;;;;40.97;6.55;;;;;;;;;;5003232;28;20224;-84
2021/05/21 08:20:14;;;;;;;237.75;35.00;;;;;;;;;;5003766;28;20203;-85
2021/05/21 08:22:41;;;;;;;37.08;7.38;;;;;;;;;;5003471;28;20192;-84
2021/05/21 08:25:10;;;;;;;12.98;3.03;;;;;;;;;;5002467;28;20216;-85
2021/05/21 08:27:37;;;;;;;23.02;4.25;;;;;;;;;;5002303;28;20235;-85
2021/05/21 08:30:07;;;;;;;2.28;1.48;;;;;;;;;;5002964;28;20188;-85
2021/05/21 08:32:35;;;;;;;1.88;1.20;;;;;;;;;;5004490;28;20593;-84
2021/05/21 08:35:02;;;;;;;32.88;5.32;;;;;;;;;;5003740;28;20204;-85
2021/05/21 08:37:29;;;;;;;17.10;3.33;;;;;;;;;;5003864;28;20236;-85
2021/05/21 08:39:56;;;;;;;3.15;1.23;;;;;;;;;;5002593;28;20274;-83
2021/05/21 08:42:24;;;;;;;1.70;0.88;;;;;;;;;;4996072;28;20208;-83
2021/05/21 08:44:51;;;;;;;1.67;1.10;;;;;;;;;;4993172;28;20666;-84
2021/05/21 08:47:19;;;;;;;2.35;1.10;;;;;;;;;;4999291;28;20222;-84
2021/05/21 08:49:46;;;;;;;28.25;4.22;;;;;;;;;;5013418;28;20199;-84
2021/05/21 08:52:13;;;;;;;16.33;2.75;;;;;;;;;;5014053;28;20211;-84
2021/05/21 08:54:41;;;;;;;17.08;2.60;;;;;;;;;;5014134;28;20191;-83
2021/05/21 08:57:09;;;;;;;9.48;2.38;;;;;;;;;;5013132;28;20813;-84
2021/05/21 08:59:37;;;;;;;4.18;1.10;;;;;;;;;;5013141;28;20557;-81
2021/05/21 09:02:06;;;;;;;7.07;1.92;;;;;;;;;;5013241;28;20238;-83
2021/05/21 09:04:49;;;;;;;66.00;7.25;;;;;;;;;;5014451;28;20203;-84
2021/05/21 09:07:21;;;;;;;1.63;0.93;;;;;;;;;;5014027;28;20685;-82
2021/05/21 09:09:58;;;;;;;1.75;1.17;;;;;;;;;;5013286;28;20262;-84
2021/05/21 09:12:38;;;;;;;134.45;16.40;;;;;;;;;;5014006;28;20614;-83
2021/05/21 09:15:13;;;;;;;20.88;2.88;;;;;;;;;;5014095;28;20546;-83
2021/05/21 09:17:55;;;;;;;5.20;1.48;;;;;;;;;;5015844;28;20364;-82
2021/05/21 09:20:25;;;;;;;288.85;43.20;;;;;;;;;;5012990;28;20234;-83
2021/05/21 09:23:07;;;;;;;83.70;11.95;;;;;;;;;;5010096;28;20670;-84
2021/05/21 09:25:43;;;;;;;17.00;2.85;;;;;;;;;;4994457;28;20204;-83
2021/05/21 09:28:33;;;;;;;118.05;15.00;;;;;;;;;;4993742;28;20227;-83
2021/05/21 09:31:15;;;;;;;6.43;1.98;;;;;;;;;;4995002;28;20246;-84
2021/05/21 09:33:45;;;;;;;3.72;1.40;;;;;;;;;;4999805;28;20585;-83
2021/05/21 09:36:14;;;;;;;27.40;5.40;;;;;;;;;;4998320;28;20246;-84
2021/05/21 09:38:53;;;;;;;2.15;0.82;;;;;;;;;;4995314;28;20200;-84
2021/05/21 09:41:21;;;;;;;14.93;2.80;;;;;;;;;;4996454;28;20207;-84
2021/05/21 09:43:52;;;;;;;74.10;10.38;;;;;;;;;;4995730;28;20188;-83
2021/05/21 09:46:19;;;;;;;74.40;12.00;;;;;;;;;;4993531;28;20653;-85
2021/05/21 09:48:47;;;;;;;63.92;8.75;;;;;;;;;;4994768;28;20262;-84
2021/05/21 09:51:18;;;;;;;14.27;2.30;;;;;;;;;;4997305;28;20542;-85
2021/05/21 09:53:47;;;;;;;52.13;7.57;;;;;;;;;;4996851;28;20215;-84
2021/05/21 09:56:20;;;;;;;61.72;9.02;;;;;;;;;;4998361;28;20188;-85
2021/05/21 09:58:56;;;;;;;43.35;5.55;;;;;;;;;;4997203;28;20208;-85
2021/05/21 10:01:25;;;;;;;3.25;1.08;;;;;;;;;;4997058;28;20192;-85
2021/05/21 10:04:03;;;;;;;1.27;0.95;;;;;;;;;;4999526;28;20204;-85
2021/05/21 10:06:32;;;;;;;0.80;0.80;;;;;;;;;;4996846;28;20289;-85
2021/05/21 10:09:01;;;;;;;3.08;0.88;;;;;;;;;;4996809;28;20215;-85
2021/05/21 10:11:32;;;;;;;0.90;0.90;;;;;;;;;;4996305;28;20639;-84
2021/05/21 10:14:09;;;;;;;1.17;0.80;;;;;;;;;;4996731;28;20199;-85
2021/05/21 10:16:37;;;;;;;1.23;1.13;;;;;;;;;;4997026;28;20219;-85
2021/05/21 10:19:05;;;;;;;1.23;1.00;;;;;;;;;;4996808;28;20188;-86
2021/05/21 10:21:35;;;;;;;7.22;1.00;;;;;;;;;;4996302;28;20243;-86
2021/05/21 10:24:33;;;;;;;12.27;2.17;;;;;;;;;;4996889;28;20287;-86
2021/05/21 10:27:17;;;;;;;13.07;3.05;;;;;;;;;;4995644;28;20228;-86
2021/05/21 10:29:56;;;;;;;12.70;2.10;;;;;;;;;;4996447;28;20239;-86
2021/05/21 10:32:30;;;;;;;27.55;4.03;;;;;;;;;;4996597;28;20650;-87
2021/05/21 10:35:17;;;;;;;2.65;1.00;;;;;;;;;;4996520;28;20630;-86
2021/05/21 10:37:47;;;;;;;72.80;9.13;;;;;;;;;;4995992;28;20231;-86
2021/05/21 10:40:22;;;;;;;147.80;17.58;;;;;;;;;;4996620;28;20195;-87
2021/05/21 10:42:51;;;;;;;10.82;1.83;;;;;;;;;;4996860;28;20662;-86
2021/05/21 10:45:20;;;;;;;1.67;1.00;;;;;;;;;;4996475;28;20192;-85
2021/05/21 10:47:56;;;;;;;2.42;1.20;;;;;;;;;;4996639;28;20219;-86
2021/05/21 10:50:23;;;;;;;4.45;1.63;;;;;;;;;;4996793;28;20211;-85
2021/05/21 10:53:03;;;;;;;59.55;8.70;;;;;;;;;;4996356;28;20195;-83
2021/05/21 10:55:49;;;;;;;1.75;1.15;;;;;;;;;;4995236;28;20215;-85
2021/05/21 10:58:26;;;;;;;0.93;0.88;;;;;;;;;;4994538;28;20230;-86
2021/05/21 11:01:17;;;;;;;1.40;0.90;;;;;;;;;;4995301;28;20463;-86
2021/05/21 11:04:02;;;;;;;1.10;1.00;;;;;;;;;;4995264;28;20290;-84
2021/05/21 11:06:31;;;;;;;2.00;0.90;;;;;;;;;;4994974;28;20224;-85
2021/05/21 11:09:03;;;;;;;1.90;1.80;;;;;;;;;;4994893;28;20649;-86
2021/05/21 11:12:00;;;;;;;1.08;0.98;;;;;;;;;;4994435;28;20214;-85
2021/05/21 11:14:49;;;;;;;2.83;0.90;;;;;;;;;;4994950;28;20206;-86
2021/05/21 11:17:23;;;;;;;0.80;0.80;;;;;;;;;;4995062;28;20239;-85
2021/05/21 11:19:53;;;;;;;3.15;1.08;;;;;;;;;;4994787;28;20559;-86
2021/05/21 11:22:32;;;;;;;5.30;1.90;;;;;;;;;;4994243;28;20232;-85
2021/05/21 11:25:02;;;;;;;2.45;1.00;;;;;;;;;;4994614;28;20211;-85
2021/05/21 11:27:29;;;;;;;1.15;1.10;;;;;;;;;;4994998;28;20228;-85
2021/05/21 11:29:57;;;;;;;2.15;1.40;;;;;;;;;;4994384;28;20717;-85
2021/05/21 11:32:26;;;;;;;5.05;1.27;;;;;;;;;;4997604;28;20200;-87
2021/05/21 11:34:53;;;;;;;1.40;1.20;;;;;;;;;;4996834;28;20238;-86
2021/05/21 11:37:25;;;;;;;3.47;0.90;;;;;;;;;;4997178;28;20717;-86
2021/05/21 11:39:53;;;;;;;5.00;1.27;;;;;;;;;;4996754;28;20199;-86
2021/05/21 11:42:22;;;;;;;3.95;1.77;;;;;;;;;;4997175;28;20614;-85
2021/05/21 11:44:50;;;;;;;1.45;1.00;;;;;;;;;;4997222;28;20200;-84
2021/05/21 11:47:24;;;;;;;4.32;1.20;;;;;;;;;;4997361;28;20230;-85
2021/05/21 11:49:52;;;;;;;2.20;1.23;;;;;;;;;;4997537;28;20230;-86
2021/05/21 11:52:19;;;;;;;0.98;0.93;;;;;;;;;;4996908;28;20203;-86
2021/05/21 11:54:48;;;;;;;4.38;1.23;;;;;;;;;;4997580;28;20191;-86
2021/05/21 11:57:18;;;;;;;1.98;1.00;;;;;;;;;;4997325;28;20228;-85
2021/05/21 11:59:47;;;;;;;3.60;1.35;;;;;;;;;;4997171;28;20199;-85
2021/05/21 12:02:15;;;;;;;1.23;1.13;;;;;;;;;;4997462;28;20750;-84
2021/05/21 12:04:43;;;;;;;2.65;1.08;;;;;;;;;;4996936;28;20219;-85
2021/05/21 12:07:22;;;;;;;2.58;1.27;;;;;;;;;;4998116;28;20235;-85
2021/05/21 12:09:59;;;;;;;2.13;1.15;;;;;;;;;;4997336;28;20278;-84
2021/05/21 12:12:28;;;;;;;2.72;1.40;;;;;;;;;;5001149;28;20207;-86
2021/05/21 12:15:08;;;;;;;3.92;1.30;;;;;;;;;;5003844;28;20199;-85
2021/05/21 12:17:36;;;;;;;1.63;0.93;;;;;;;;;;5003222;28;20211;-85
2021/05/21 12:20:06;;;;;;;5.15;1.38;;;;;;;;;;5003809;28;20203;-86
2021/05/21 12:22:32;;;;;;;3.95;1.65;;;;;;;;;;5003480;28;20269;-85
2021/05/21 12:25:02;;;;;;;3.38;1.20;;;;;;;;;;5004605;28;20603;-85
2021/05/21 12:27:28;;;;;;;2.03;1.30;;;;;;;;;;5004652;28;20249;-85
2021/05/21 12:29:55;;;;;;;2.25;1.42;;;;;;;;;;5004272;28;20258;-85
2021/05/21 12:32:23;;;;;;;2.40;1.23;;;;;;;;;;5003271;28;20204;-85
2021/05/21 12:34:52;;;;;;;1.73;1.20;;;;;;;;;;5004741;28;20208;-84
2021/05/21 12:37:24;;;;;;;3.80;1.50;;;;;;;;;;5003851;28;20231;-85
2021/05/21 12:39:51;;;;;;;1.88;1.30;;;;;;;;;;5004883;28;20204;-84
2021/05/21 12:42:21;;;;;;;3.67;1.30;;;;;;;;;;5003671;28;20539;-85
2021/05/21 12:44:51;;;;;;;3.03;1.70;;;;;;;;;;5004508;28;20187;-85
2021/05/21 12:47:19;;;;;;;2.60;1.17;;;;;;;;;;5003150;28;20706;-84
2021/05/21 12:49:49;;;;;;;1.42;1.17;;;;;;;;;;5004314;28;20215;-85
2021/05/21 12:52:16;;;;;;;3.35;1.30;;;;;;;;;;5004604;28;20597;-84
2021/05/21 12:54:45;;;;;;;2.90;1.65;;;;;;;;;;5003646;28;20184;-84
2021/05/21 12:57:18;;;;;;;4.45;1.25;;;;;;;;;;5002590;28;20227;-84
2021/05/21 12:59:50;;;;;;;154.40;20.08;;;;;;;;;;5003390;28;20195;-83
2021/05/21 13:02:20;;;;;;;35.55;5.30;;;;;;;;;;5002030;28;20257;-84
2021/05/21 13:04:58;;;;;;;33.80;5.43;;;;;;;;;;5004142;28;20188;-83
2021/05/21 13:07:26;;;;;;;27.10;3.55;;;;;;;;;;5002582;28;20246;-84
2021/05/21 13:09:54;;;;;;;17.55;3.47;;;;;;;;;;5001577;28;20310;-83
2021/05/21 13:12:30;;;;;;;9.63;2.70;;;;;;;;;;5002848;28;20270;-84
2021/05/21 13:14:57;;;;;;;61.88;8.55;;;;;;;;;;5003042;28;20219;-85
2021/05/21 13:17:30;;;;;;;1.30;1.00;;;;;;;;;;5000490;28;20608;-85
2021/05/21 13:20:00;;;;;;;30.48;4.15;;;;;;;;;;5001615;28;20210;-84
2021/05/21 13:22:29;;;;;;;39.47;6.10;;;;;;;;;;5000602;28;20206;-84
2021/05/21 13:24:58;;;;;;;57.40;9.32;;;;;;;;;;5005132;28;20204;-85
2021/05/21 13:27:28;;;;;;;20.42;4.22;;;;;;;;;;5005020;28;20587;-84
2021/05/21 13:29:56;;;;;;;25.52;3.72;;;;;;;;;;5005032;28;20227;-86
2021/05/21 13:32:25;;;;;;;216.65;28.85;;;;;;;;;;5005057;28;20287;-83
2021/05/21 13:34:52;;;;;;;25.48;3.95;;;;;;;;;;5005170;28;20212;-84
2021/05/21 13:37:20;;;;;;;46.15;5.90;;;;;;;;;;5004109;28;20211;-86
2021/05/21 13:39:50;;;;;;;1.60;1.10;;;;;;;;;;5003803;28;20215;-85
2021/05/21 13:42:17;;;;;;;1.85;0.90;;;;;;;;;;4999506;28;20780;-84
2021/05/21 13:44:46;;;;;;;18.45;3.05;;;;;;;;;;4996554;28;20311;-84
2021/05/21 13:47:13;;;;;;;32.28;4.88;;;;;;;;;;4996423;28;20231;-84
2021/05/21 13:49:40;;;;;;;175.15;19.60;;;;;;;;;;4996084;28;20228;-84
2021/05/21 13:52:07;;;;;;;2.22;1.48;;;;;;;;;;4997250;28;20203;-85
2021/05/21 13:54:35;;;;;;;12.93;3.15;;;;;;;;;;4998062;28;20207;-84
2021/05/21 13:57:02;;;;;;;15.68;3.63;;;;;;;;;;4996179;28;20254;-85
2021/05/21 13:59:29;;;;;;;14.27;3.20;;;;;;;;;;4995912;28;20192;-84
2021/05/21 14:01:56;;;;;;;12.63;2.30;;;;;;;;;;4996173;28;20211;-85
2021/05/21 14:04:23;;;;;;;18.92;3.45;;;;;;;;;;4996817;28;20202;-85
2021/05/21 14:06:50;;;;;;;48.05;7.18;;;;;;;;;;4997520;28;20220;-86
2021/05/21 14:09:17;;;;;;;3.30;1.45;;;;;;;;;;4998368;28;20340;-85
2021/05/21 14:11:45;;;;;;;3.47;1.52;;;;;;;;;;4995593;28;20203;-85
2021/05/21 14:14:13;;;;;;;4.97;1.52;;;;;;;;;;4996647;28;20247;-84
2021/05/21 14:16:41;;;;;;;2.55;1.90;;;;;;;;;;4996112;28;20223;-84
2021/05/21 14:19:09;;;;;;;3.67;1.55;;;;;;;;;;4995818;28;20559;-85
2021/05/21 14:21:37;;;;;;;3.80;1.98;;;;;;;;;;4977606;28;536812;-85
2021/05/21 14:24:05;;;;;;;4.80;1.13;;;;;;;;;;4996798;28;20287;-83
2021/05/21 14:26:33;;;;;;;4.07;1.20;;;;;;;;;;5004480;28;20223;-84
2021/05/21 14:29:07;;;;;;;2.92;1.40;;;;;;;;;;4998127;28;20200;-84
2021/05/21 14:31:34;;;;;;;2.40;1.40;;;;;;;;;;4998094;28;20572;-84
2021/05/21 14:34:02;;;;;;;5.88;1.70;;;;;;;;;;4998205;28;20279;-84
2021/05/21 14:36:29;;;;;;;3.40;1.33;;;;;;;;;;4999851;28;20316;-84
2021/05/21 14:38:56;;;;;;;4.45;1.33;;;;;;;;;;5002081;28;20654;-85
2021/05/21 14:41:23;;;;;;;3.75;1.33;;;;;;;;;;5000002;28;20207;-86
2021/05/21 14:43:51;;;;;;;5.57;1.48;;;;;;;;;;4999649;28;20211;-84
2021/05/21 14:46:20;;;;;;;2.10;1.40;;;;;;;;;;5000880;28;20678;-84
2021/05/21 14:48:47;;;;;;;2.00;1.17;;;;;;;;;;4999403;28;20294;-85
2021/05/21 14:51:16;;;;;;;2.08;1.30;;;;;;;;;;4999407;28;20599;-83